createdAt,value
2022-08-26T00:01:15.563Z,95327.25
2022-08-26T00:03:44.391Z,95335.91
2022-08-26T00:06:11.543Z,95332.66
2022-08-26T00:08:39.782Z,95328.50
2022-08-26T00:11:09.102Z,95331.13
2022-08-26T00:13:36.962Z,95329.91
2022-08-26T00:16:08.461Z,95323.56
2022-08-26T00:18:40.769Z,95323.16
2022-08-26T00:21:09.237Z,95321.00
2022-08-26T00:23:38.303Z,95320.03
2022-08-26T00:26:06.135Z,95315.38
2022-08-26T00:28:36.001Z,95321.03
2022-08-26T00:31:03.603Z,95329.41
2022-08-26T00:33:32.162Z,95314.59
2022-08-26T00:36:00.110Z,95319.16
2022-08-26T00:38:28.310Z,95316.56
2022-08-26T00:40:57.520Z,95320.84
2022-08-26T00:43:26.990Z,95322.84
2022-08-26T00:46:02.416Z,95329.09
2022-08-26T00:48:33.057Z,95333.97
2022-08-26T00:51:04.505Z,95332.97
2022-08-26T00:53:37.133Z,95325.31
2022-08-26T00:56:09.863Z,95325.59
2022-08-26T00:58:40.952Z,95328.59
2022-08-26T01:01:08.165Z,95320.13
2022-08-26T01:03:38.901Z,95326.97
2022-08-26T01:06:12.506Z,95325.13
2022-08-26T01:08:40.870Z,95327.50
2022-08-26T01:11:09.447Z,95336.53
2022-08-26T01:13:39.327Z,95343.31
2022-08-26T01:16:11.152Z,95331.00
2022-08-26T01:18:41.430Z,95332.75
2022-08-26T01:21:21.587Z,95335.72
2022-08-26T01:23:57.265Z,95332.75
2022-08-26T01:26:27.932Z,95334.66
2022-08-26T01:28:58.788Z,95333.84
2022-08-26T01:31:30.690Z,95336.84
2022-08-26T01:34:06.181Z,95339.91
2022-08-26T01:36:33.622Z,95339.53
2022-08-26T01:39:05.709Z,95338.03
2022-08-26T01:41:34.438Z,95340.78
2022-08-26T01:44:05.180Z,95334.72
2022-08-26T01:46:34.466Z,95329.47
2022-08-26T01:49:06.839Z,95339.47
2022-08-26T01:51:37.820Z,95340.00
2022-08-26T01:54:12.069Z,95336.84
2022-08-26T01:56:41.299Z,95350.06
2022-08-26T01:59:13.674Z,95347.28
2022-08-26T02:01:41.479Z,95346.16
2022-08-26T02:04:21.530Z,95337.69
2022-08-26T02:06:49.622Z,95348.81
2022-08-26T02:09:20.479Z,95345.34
2022-08-26T02:11:48.538Z,95345.97
2022-08-26T02:14:20.220Z,95351.47
2022-08-26T02:16:52.438Z,95346.56
2022-08-26T02:19:26.019Z,95346.78
2022-08-26T02:21:53.899Z,95341.81
2022-08-26T02:24:27.427Z,95352.72
2022-08-26T02:26:56.184Z,95350.06
2022-08-26T02:29:29.598Z,95355.81
2022-08-26T02:31:58.821Z,95356.19
2022-08-26T02:34:31.423Z,95353.00
2022-08-26T02:37:01.380Z,95353.31
2022-08-26T02:39:31.000Z,95350.13
2022-08-26T02:41:59.320Z,95348.63
2022-08-26T02:44:27.428Z,95350.00
2022-08-26T02:46:54.849Z,95349.94
2022-08-26T02:49:22.706Z,95352.41
2022-08-26T02:51:50.985Z,95348.31
2022-08-26T02:54:20.265Z,95345.94
2022-08-26T02:56:49.858Z,95344.28
2022-08-26T02:59:17.638Z,95341.28
2022-08-26T03:01:45.044Z,95346.16
2022-08-26T03:04:13.059Z,95338.72
2022-08-26T03:06:41.624Z,95336.03
2022-08-26T03:09:09.319Z,95336.09
2022-08-26T03:11:37.340Z,95343.66
2022-08-26T03:14:06.255Z,95331.16
2022-08-26T03:16:36.180Z,95330.97
2022-08-26T03:19:06.291Z,95333.03
2022-08-26T03:21:36.180Z,95339.22
2022-08-26T03:24:03.958Z,95339.59
2022-08-26T03:26:31.661Z,95337.22
2022-08-26T03:28:58.739Z,95340.00
2022-08-26T03:31:27.668Z,95349.81
2022-08-26T03:33:59.542Z,95340.09
2022-08-26T03:36:27.624Z,95327.97
2022-08-26T03:38:54.920Z,95333.53
2022-08-26T03:41:22.319Z,95332.34
2022-08-26T03:43:49.711Z,95340.19
2022-08-26T03:46:18.587Z,95344.25
2022-08-26T03:48:47.478Z,95347.75
2022-08-26T03:51:19.778Z,95348.25
2022-08-26T03:53:47.640Z,95338.09
2022-08-26T03:56:15.860Z,95338.69
2022-08-26T03:58:43.087Z,95340.56
2022-08-26T04:01:11.199Z,95350.00
2022-08-26T04:03:38.441Z,95345.44
2022-08-26T04:06:07.699Z,95345.28
2022-08-26T04:08:34.938Z,95344.78
2022-08-26T04:11:02.311Z,95348.75
2022-08-26T04:13:29.966Z,95354.13
2022-08-26T04:15:57.109Z,95346.97
2022-08-26T04:18:25.379Z,95348.25
2022-08-26T04:20:59.858Z,95349.22
2022-08-26T04:23:28.321Z,95359.19
2022-08-26T04:25:55.459Z,95349.78
2022-08-26T04:28:22.919Z,95357.72
2022-08-26T04:30:50.000Z,95347.63
2022-08-26T04:33:18.140Z,95351.94
2022-08-26T04:36:01.178Z,95354.72
2022-08-26T04:38:30.599Z,95356.59
2022-08-26T04:40:58.420Z,95352.63
2022-08-26T04:43:25.618Z,95351.41
2022-08-26T04:45:53.619Z,95355.16
2022-08-26T04:48:20.903Z,95353.06
2022-08-26T04:50:49.629Z,95353.63
2022-08-26T04:53:16.920Z,95355.50
2022-08-26T04:55:46.544Z,95346.97
2022-08-26T04:58:17.440Z,95352.41
2022-08-26T05:00:45.018Z,95352.06
2022-08-26T05:03:12.538Z,95350.44
2022-08-26T05:05:41.155Z,95348.75
2022-08-26T05:08:09.301Z,95351.75
2022-08-26T05:10:43.591Z,95344.13
2022-08-26T05:13:15.554Z,95351.81
2022-08-26T05:15:43.815Z,95355.34
2022-08-26T05:18:11.139Z,95352.97
2022-08-26T05:20:41.878Z,95349.22
2022-08-26T05:23:09.291Z,95356.75
2022-08-26T05:25:38.318Z,95351.69
2022-08-26T05:28:05.458Z,95352.97
2022-08-26T05:30:34.439Z,95352.59
2022-08-26T05:33:01.619Z,95352.38
2022-08-26T05:35:31.478Z,95351.59
2022-08-26T05:37:58.960Z,95356.66
2022-08-26T05:40:27.089Z,95358.47
2022-08-26T05:42:54.700Z,95361.91
2022-08-26T05:45:21.999Z,95356.47
2022-08-26T05:47:51.699Z,95362.34
2022-08-26T05:50:19.320Z,95369.78
2022-08-26T05:52:46.439Z,95374.06
2022-08-26T05:55:13.639Z,95376.06
2022-08-26T05:57:42.901Z,95377.88
2022-08-26T06:00:11.880Z,95368.63
2022-08-26T06:02:39.126Z,95372.88
2022-08-26T06:05:08.239Z,95366.66
2022-08-26T06:07:35.401Z,95373.09
2022-08-26T06:10:28.701Z,95375.69
2022-08-26T06:12:50.039Z,95375.50
2022-08-26T06:15:17.362Z,95378.88
2022-08-26T06:17:44.438Z,95376.69
2022-08-26T06:20:13.279Z,95383.56
2022-08-26T06:22:40.419Z,95375.91
2022-08-26T06:25:08.580Z,95381.19
2022-08-26T06:27:37.141Z,95377.00
2022-08-26T06:30:05.178Z,95384.56
2022-08-26T06:32:33.559Z,95381.06
2022-08-26T06:35:00.920Z,95380.00
2022-08-26T06:37:30.099Z,95386.44
2022-08-26T06:39:57.631Z,95391.31
2022-08-26T06:42:24.980Z,95391.00
2022-08-26T06:44:52.078Z,95383.75
2022-08-26T06:47:19.218Z,95395.28
2022-08-26T06:49:46.561Z,95396.56
2022-08-26T06:52:13.718Z,95407.09
2022-08-26T06:54:43.241Z,95395.06
2022-08-26T06:57:12.579Z,95403.31
2022-08-26T06:59:41.480Z,95397.03
2022-08-26T07:02:08.708Z,95400.03
2022-08-26T07:04:40.679Z,95404.50
2022-08-26T07:07:09.707Z,95401.69
2022-08-26T07:09:36.880Z,95405.50
2022-08-26T07:12:06.857Z,95401.28
2022-08-26T07:14:35.304Z,95406.50
2022-08-26T07:17:02.460Z,95407.47
2022-08-26T07:19:30.980Z,95412.94
2022-08-26T07:22:00.619Z,95411.13
2022-08-26T07:24:28.446Z,95416.72
2022-08-26T07:27:00.107Z,95415.84
2022-08-26T07:29:28.680Z,95419.41
2022-08-26T07:31:56.360Z,95415.72
2022-08-26T07:34:24.259Z,95428.13
2022-08-26T07:36:51.865Z,95429.69
2022-08-26T07:39:19.871Z,95430.81
2022-08-26T07:41:47.105Z,95423.25
2022-08-26T07:44:14.778Z,95434.06
2022-08-26T07:46:44.259Z,95427.63
2022-08-26T07:49:19.888Z,95425.94
2022-08-26T07:51:47.199Z,95432.63
2022-08-26T07:54:14.340Z,95435.41
2022-08-26T07:56:41.500Z,95432.78
2022-08-26T07:59:14.089Z,95430.50
2022-08-26T08:01:45.408Z,95429.41
2022-08-26T08:04:13.988Z,95432.78
2022-08-26T08:06:41.542Z,95433.84
2022-08-26T08:09:12.544Z,95433.47
2022-08-26T08:11:39.798Z,95433.34
2022-08-26T08:14:08.462Z,95431.06
2022-08-26T08:16:39.135Z,95421.75
2022-08-26T08:19:11.540Z,95428.00
2022-08-26T08:21:38.659Z,95422.41
2022-08-26T08:24:06.858Z,95412.63
2022-08-26T08:26:33.999Z,95420.38
2022-08-26T08:29:01.301Z,95418.22
2022-08-26T08:31:55.839Z,95428.22
2022-08-26T08:34:21.470Z,95424.47
2022-08-26T08:36:49.081Z,95419.22
2022-08-26T08:39:16.746Z,95417.16
2022-08-26T08:42:14.199Z,95422.47
2022-08-26T08:44:51.978Z,95432.53
2022-08-26T08:47:27.660Z,95432.59
2022-08-26T08:50:06.601Z,95435.78
2022-08-26T08:52:36.619Z,95431.50
2022-08-26T08:55:10.377Z,95441.00
2022-08-26T08:58:02.236Z,95444.19
2022-08-26T09:00:39.754Z,95441.63
2022-08-26T09:03:23.673Z,95441.44
2022-08-26T09:05:54.079Z,95446.53
2022-08-26T09:08:26.961Z,95446.88
2022-08-26T09:10:58.360Z,95450.75
2022-08-26T09:13:27.400Z,95446.66
2022-08-26T09:16:05.639Z,95453.28
2022-08-26T09:18:53.088Z,95455.44
2022-08-26T09:21:25.197Z,95454.38
2022-08-26T09:23:54.919Z,95452.09
2022-08-26T09:26:28.687Z,95451.09
2022-08-26T09:28:59.019Z,95454.53
2022-08-26T09:31:28.482Z,95455.38
2022-08-26T09:34:12.159Z,95454.63
2022-08-26T09:36:48.182Z,95454.28
2022-08-26T09:39:34.998Z,95456.41
2022-08-26T09:42:09.921Z,95461.81
2022-08-26T09:44:54.918Z,95451.16
2022-08-26T09:47:29.180Z,95454.75
2022-08-26T09:50:09.981Z,95460.31
2022-08-26T09:52:42.791Z,95456.34
2022-08-26T09:55:15.603Z,95458.84
2022-08-26T09:57:49.727Z,95453.47
2022-08-26T10:00:33.740Z,95459.56
2022-08-26T10:03:04.152Z,95454.31
2022-08-26T10:05:40.100Z,95451.63
2022-08-26T10:08:24.281Z,95455.69
2022-08-26T10:10:53.531Z,95456.00
2022-08-26T10:13:28.071Z,95447.25
2022-08-26T10:16:10.768Z,95454.63
2022-08-26T10:18:43.136Z,95448.78
2022-08-26T10:21:18.018Z,95444.00
2022-08-26T10:23:51.406Z,95445.91
2022-08-26T10:26:26.908Z,95444.06
2022-08-26T10:29:00.474Z,95445.78
2022-08-26T10:31:40.247Z,95443.09
2022-08-26T10:34:09.875Z,95443.00
2022-08-26T10:37:10.526Z,95446.50
2022-08-26T10:39:45.937Z,95446.56
2022-08-26T10:42:21.932Z,95438.22
2022-08-26T10:44:54.934Z,95445.69
2022-08-26T10:47:32.947Z,95447.00
2022-08-26T10:50:02.911Z,95439.41
2022-08-26T10:52:50.318Z,95438.72
2022-08-26T10:55:27.539Z,95440.50
2022-08-26T10:58:05.437Z,95442.50
2022-08-26T11:00:43.924Z,95433.53
2022-08-26T11:03:28.741Z,95437.81
2022-08-26T11:06:22.320Z,95436.81
2022-08-26T11:08:51.383Z,95435.63
2022-08-26T11:11:51.004Z,95435.03
2022-08-26T11:14:45.942Z,95432.97
2022-08-26T11:17:53.860Z,95435.72
2022-08-26T11:20:34.987Z,95439.50
2022-08-26T11:23:45.200Z,95441.22
2022-08-26T11:26:35.383Z,95449.06
2022-08-26T11:29:12.997Z,95441.50
2022-08-26T11:31:56.646Z,95437.81
2022-08-26T11:34:53.444Z,95437.22
2022-08-26T11:37:24.485Z,95432.84
2022-08-26T11:39:57.240Z,95429.47
2022-08-26T11:42:36.703Z,95432.84
2022-08-26T11:45:19.144Z,95431.16
2022-08-26T11:47:46.344Z,95424.69
2022-08-26T11:50:18.869Z,95421.19
2022-08-26T11:52:55.708Z,95419.16
2022-08-26T11:55:23.218Z,95415.00
2022-08-26T11:57:55.791Z,95417.53
2022-08-26T12:00:33.281Z,95418.41
2022-08-26T12:03:07.735Z,95417.13
2022-08-26T12:05:42.106Z,95416.56
2022-08-26T12:08:12.486Z,95414.84
2022-08-26T12:10:40.235Z,95414.38
2022-08-26T12:13:08.767Z,95411.09
2022-08-26T12:15:37.345Z,95408.31
2022-08-26T12:18:20.757Z,95409.00
2022-08-26T12:21:00.092Z,95410.94
2022-08-26T12:23:40.488Z,95403.94
2022-08-26T12:26:13.189Z,95407.50
2022-08-26T12:28:46.751Z,95410.44
2022-08-26T12:31:22.631Z,95408.56
2022-08-26T12:33:51.124Z,95401.00
2022-08-26T12:36:25.836Z,95401.97
2022-08-26T12:38:57.694Z,95404.63
2022-08-26T12:41:47.257Z,95406.31
2022-08-26T12:44:38.321Z,95403.78
2022-08-26T12:47:11.577Z,95403.06
2022-08-26T12:49:41.456Z,95408.06
2022-08-26T12:52:23.097Z,95401.97
2022-08-26T12:54:56.747Z,95398.66
2022-08-26T12:57:28.615Z,95388.13
2022-08-26T13:00:28.420Z,95396.41
2022-08-26T13:02:57.793Z,95387.06
2022-08-26T13:05:27.655Z,95380.16
2022-08-26T13:08:14.213Z,95379.28
2022-08-26T13:10:44.873Z,95379.47
2022-08-26T13:13:13.073Z,95376.81
2022-08-26T13:15:40.253Z,95373.22
2022-08-26T13:18:08.900Z,95366.09
2022-08-26T13:20:40.713Z,95370.44
2022-08-26T13:23:08.716Z,95376.91
2022-08-26T13:25:35.953Z,95375.19
2022-08-26T13:28:03.536Z,95372.66
2022-08-26T13:30:30.794Z,95377.47
2022-08-26T13:33:00.800Z,95379.50
2022-08-26T13:35:31.014Z,95372.34
2022-08-26T13:37:58.153Z,95376.94
2022-08-26T13:40:25.867Z,95371.22
2022-08-26T13:42:53.474Z,95371.81
2022-08-26T13:45:20.674Z,95367.38
2022-08-26T13:47:48.102Z,95363.22
2022-08-26T13:50:15.398Z,95365.47
2022-08-26T13:52:44.023Z,95354.44
2022-08-26T13:55:11.146Z,95352.06
2022-08-26T13:57:38.426Z,95355.06
2022-08-26T14:00:07.135Z,95349.38
2022-08-26T14:02:38.119Z,95349.03
2022-08-26T14:05:06.226Z,95347.00
2022-08-26T14:07:33.726Z,95349.19
2022-08-26T14:10:02.338Z,95343.06
2022-08-26T14:12:29.552Z,95344.53
2022-08-26T14:14:56.711Z,95336.69
2022-08-26T14:17:25.134Z,95330.97
2022-08-26T14:19:53.303Z,95329.75
2022-08-26T14:22:22.592Z,95325.50
2022-08-26T14:24:50.371Z,95329.63
2022-08-26T14:27:18.939Z,95326.38
2022-08-26T14:29:46.120Z,95327.69
2022-08-26T14:32:22.647Z,95332.16
2022-08-26T14:34:50.588Z,95331.97
2022-08-26T14:37:18.949Z,95323.47
2022-08-26T14:39:46.390Z,95320.66
2022-08-26T14:42:15.994Z,95314.66
2022-08-26T14:44:51.809Z,95318.09
2022-08-26T14:47:19.050Z,95323.94
2022-08-26T14:49:46.270Z,95320.97
2022-08-26T14:52:13.698Z,95320.88
2022-08-26T14:54:40.936Z,95314.44
2022-08-26T14:57:11.773Z,95316.47
2022-08-26T14:59:41.420Z,95309.53
2022-08-26T15:02:29.763Z,95310.94
2022-08-26T15:05:01.362Z,95307.16
2022-08-26T15:07:28.630Z,95310.94
2022-08-26T15:09:55.973Z,95317.47
2022-08-26T15:12:23.254Z,95308.91
2022-08-26T15:14:50.402Z,95306.53
2022-08-26T15:17:18.992Z,95306.53
2022-08-26T15:19:46.056Z,95309.53
2022-08-26T15:22:13.217Z,95303.78
2022-08-26T15:24:40.682Z,95300.00
2022-08-26T15:27:08.040Z,95307.75
2022-08-26T15:29:36.310Z,95304.59
2022-08-26T15:32:04.920Z,95304.94
2022-08-26T15:34:33.682Z,95309.56
2022-08-26T15:37:00.817Z,95306.13
2022-08-26T15:39:28.687Z,95299.53
2022-08-26T15:41:55.818Z,95289.84
2022-08-26T15:44:23.324Z,95288.69
2022-08-26T15:46:52.528Z,95284.19
2022-08-26T15:49:23.579Z,95281.78
2022-08-26T15:51:52.241Z,95278.50
2022-08-26T15:54:22.440Z,95283.72
2022-08-26T15:56:50.702Z,95283.38
2022-08-26T15:59:19.586Z,95294.91
2022-08-26T16:01:47.252Z,95288.81
2022-08-26T16:04:15.465Z,95287.38
2022-08-26T16:06:42.943Z,95303.94
2022-08-26T16:09:11.737Z,95296.94
2022-08-26T16:11:39.267Z,95290.66
2022-08-26T16:14:06.961Z,95292.22
2022-08-26T16:16:36.778Z,95299.34
2022-08-26T16:19:07.373Z,95310.69
2022-08-26T16:21:35.448Z,95313.13
2022-08-26T16:24:03.602Z,95314.19
2022-08-26T16:26:35.701Z,95321.19
2022-08-26T16:29:05.398Z,95314.84
2022-08-26T16:31:32.679Z,95309.69
2022-08-26T16:33:59.869Z,95314.09
2022-08-26T16:36:27.137Z,95308.59
2022-08-26T16:38:54.877Z,95314.84
2022-08-26T16:41:23.244Z,95311.00
2022-08-26T16:43:52.126Z,95306.91
2022-08-26T16:46:20.381Z,95324.41
2022-08-26T16:48:47.856Z,95310.84
2022-08-26T16:51:17.975Z,95303.06
2022-08-26T16:53:46.156Z,95303.84
2022-08-26T16:56:16.055Z,95298.09
2022-08-26T16:58:43.857Z,95302.16
2022-08-26T17:01:12.881Z,95298.78
2022-08-26T17:03:40.497Z,95302.72
2022-08-26T17:06:08.797Z,95295.38
2022-08-26T17:08:37.977Z,95297.78
2022-08-26T17:11:05.559Z,95294.97
2022-08-26T17:13:35.336Z,95296.84
2022-08-26T17:16:05.294Z,95298.47
2022-08-26T17:18:35.895Z,95303.16
2022-08-26T17:21:05.802Z,95304.16
2022-08-26T17:23:33.577Z,95305.91
2022-08-26T17:26:00.918Z,95304.69
2022-08-26T17:28:28.110Z,95309.38
2022-08-26T17:30:56.445Z,95310.69
2022-08-26T17:33:24.658Z,95296.72
2022-08-26T17:35:53.976Z,95298.19
2022-08-26T17:38:21.751Z,95295.78
2022-08-26T17:40:49.071Z,95294.97
2022-08-26T17:43:16.270Z,95301.41
2022-08-26T17:45:44.063Z,95289.00
2022-08-26T17:48:11.472Z,95296.63
2022-08-26T17:50:40.488Z,95294.25
2022-08-26T17:53:17.821Z,95295.50
2022-08-26T17:55:46.688Z,95296.38
2022-08-26T17:58:14.917Z,95293.81
2022-08-26T18:00:44.089Z,95297.97
2022-08-26T18:03:11.564Z,95298.78
2022-08-26T18:05:39.012Z,95303.75
2022-08-26T18:08:06.440Z,95297.97
2022-08-26T18:10:35.648Z,95299.97
2022-08-26T18:13:02.917Z,95298.72
2022-08-26T18:15:30.163Z,95298.31
2022-08-26T18:17:57.389Z,95301.47
2022-08-26T18:20:24.565Z,95299.47
2022-08-26T18:22:51.816Z,95309.03
2022-08-26T18:25:19.032Z,95315.88
2022-08-26T18:27:47.830Z,95310.53
2022-08-26T18:30:17.130Z,95311.72
2022-08-26T18:32:44.592Z,95319.75
2022-08-26T18:35:13.149Z,95323.25
2022-08-26T18:37:40.397Z,95326.78
2022-08-26T18:40:12.431Z,95320.34
2022-08-26T18:42:40.648Z,95328.72
2022-08-26T18:45:10.895Z,95326.63
2022-08-26T18:47:44.017Z,95335.78
2022-08-26T18:50:11.890Z,95334.78
2022-08-26T18:52:39.970Z,95334.16
2022-08-26T18:55:07.790Z,95333.09
2022-08-26T18:57:35.151Z,95335.16
2022-08-26T19:00:02.790Z,95336.75
2022-08-26T19:02:31.499Z,95337.16
2022-08-26T19:04:59.011Z,95342.31
2022-08-26T19:07:26.452Z,95347.66
2022-08-26T19:09:54.231Z,95340.31
2022-08-26T19:12:21.459Z,95343.56
2022-08-26T19:14:49.049Z,95339.22
2022-08-26T19:17:19.830Z,95344.28
2022-08-26T19:19:53.450Z,95340.31
2022-08-26T19:22:20.732Z,95337.81
2022-08-26T19:24:47.891Z,95339.72
2022-08-26T19:27:15.179Z,95346.47
2022-08-26T19:29:42.775Z,95345.50
2022-08-26T19:32:09.934Z,95344.28
2022-08-26T19:34:37.109Z,95347.25
2022-08-26T19:37:05.952Z,95346.56
2022-08-26T19:39:32.997Z,95340.31
2022-08-26T19:42:00.271Z,95350.94
2022-08-26T19:44:27.370Z,95341.41
2022-08-26T19:46:54.570Z,95347.25
2022-08-26T19:49:21.730Z,95356.78
2022-08-26T19:51:48.850Z,95360.84
2022-08-26T19:54:17.490Z,95354.50
2022-08-26T19:56:49.254Z,95349.56
2022-08-26T19:59:17.350Z,95359.69
2022-08-26T20:01:44.893Z,95360.59
2022-08-26T20:04:12.112Z,95348.84
2022-08-26T20:06:39.352Z,95350.88
2022-08-26T20:09:06.595Z,95350.94
2022-08-26T20:11:35.211Z,95356.41
2022-08-26T20:14:02.530Z,95351.53
2022-08-26T20:16:29.983Z,95352.81
2022-08-26T20:18:57.290Z,95355.50
2022-08-26T20:21:24.662Z,95349.94
2022-08-26T20:23:52.517Z,95348.44
2022-08-26T20:26:20.137Z,95350.44
2022-08-26T20:28:51.098Z,95350.06
2022-08-26T20:31:20.149Z,95353.13
2022-08-26T20:33:48.023Z,95357.28
2022-08-26T20:36:16.480Z,95351.72
2022-08-26T20:38:44.051Z,95350.81
2022-08-26T20:41:13.034Z,95350.25
2022-08-26T20:43:40.739Z,95347.75
2022-08-26T20:46:18.203Z,95356.19
2022-08-26T20:48:47.818Z,95360.88
2022-08-26T20:51:15.538Z,95357.69
2022-08-26T20:53:42.938Z,95355.78
2022-08-26T20:56:12.476Z,95367.53
2022-08-26T20:58:41.278Z,95356.69
2022-08-26T21:01:18.140Z,95370.19
2022-08-26T21:03:45.854Z,95367.19
2022-08-26T21:06:13.177Z,95366.38
2022-08-26T21:08:43.170Z,95364.19
2022-08-26T21:11:10.970Z,95364.69
2022-08-26T21:13:48.585Z,95368.47
2022-08-26T21:16:28.200Z,95367.38
2022-08-26T21:18:56.007Z,95371.75
2022-08-26T21:21:25.177Z,95378.41
2022-08-26T21:23:52.737Z,95368.63
2022-08-26T21:26:20.439Z,95369.41
2022-08-26T21:28:47.578Z,95378.13
2022-08-26T21:31:17.795Z,95373.50
2022-08-26T21:33:46.977Z,95374.66
2022-08-26T21:36:15.538Z,95367.19
2022-08-26T21:38:43.060Z,95370.56
2022-08-26T21:41:12.918Z,95371.47
2022-08-26T21:43:42.095Z,95361.47
2022-08-26T21:46:12.876Z,95371.25
2022-08-26T21:48:40.716Z,95362.41
2022-08-26T21:51:11.357Z,95368.03
2022-08-26T21:53:39.857Z,95365.31
2022-08-26T21:56:10.337Z,95373.25
2022-08-26T21:58:38.869Z,95364.28
2022-08-26T22:01:09.823Z,95365.31
2022-08-26T22:03:46.887Z,95361.66
2022-08-26T22:06:18.016Z,95365.22
2022-08-26T22:08:45.280Z,95355.78
2022-08-26T22:11:12.739Z,95368.97
2022-08-26T22:13:42.497Z,95368.47
2022-08-26T22:16:10.947Z,95367.34
2022-08-26T22:18:39.396Z,95366.34
2022-08-26T22:21:09.056Z,95365.38
2022-08-26T22:23:39.178Z,95364.69
2022-08-26T22:26:08.495Z,95369.13
2022-08-26T22:28:36.558Z,95364.53
2022-08-26T22:31:03.777Z,95368.03
2022-08-26T22:33:31.037Z,95368.81
2022-08-26T22:35:58.257Z,95365.44
2022-08-26T22:38:25.777Z,95367.31
2022-08-26T22:40:55.798Z,95375.72
2022-08-26T22:43:23.576Z,95373.34
2022-08-26T22:45:52.223Z,95365.28
2022-08-26T22:48:22.375Z,95376.81
2022-08-26T22:50:53.818Z,95381.16
2022-08-26T22:53:23.397Z,95374.50
2022-08-26T22:55:50.557Z,95377.78
2022-08-26T22:58:20.977Z,95373.53
2022-08-26T23:00:58.065Z,95377.25
2022-08-26T23:03:27.638Z,95375.09
2022-08-26T23:05:55.229Z,95378.28
2022-08-26T23:08:23.618Z,95383.63
2022-08-26T23:10:52.258Z,95375.59
2022-08-26T23:13:21.136Z,95377.13
2022-08-26T23:15:48.318Z,95372.13
2022-08-26T23:18:15.957Z,95372.44
2022-08-26T23:20:43.136Z,95367.09
2022-08-26T23:23:10.397Z,95370.88
2022-08-26T23:25:37.736Z,95366.59
2022-08-26T23:28:05.536Z,95357.47
2022-08-26T23:30:34.321Z,95364.09
2022-08-26T23:33:01.665Z,95363.50
2022-08-26T23:35:29.577Z,95357.34
2022-08-26T23:37:58.928Z,95359.78
2022-08-26T23:40:30.058Z,95357.25
2022-08-26T23:42:58.957Z,95356.56
2022-08-26T23:45:27.873Z,95350.50
2022-08-26T23:47:56.837Z,95355.88
2022-08-26T23:50:26.889Z,95349.44
2022-08-26T23:52:54.051Z,95342.34
2022-08-26T23:55:21.549Z,95343.66
2022-08-26T23:57:48.650Z,95335.44
